createdAt,value
2022-12-07T00:01:08.815Z,4.10
2022-12-07T00:03:37.594Z,3.65
2022-12-07T00:06:07.137Z,3.85
2022-12-07T00:08:36.077Z,3.70
2022-12-07T00:11:06.586Z,3.88
2022-12-07T00:13:35.175Z,3.91
2022-12-07T00:16:04.192Z,3.83
2022-12-07T00:18:32.370Z,3.82
2022-12-07T00:21:03.984Z,3.90
2022-12-07T00:23:31.829Z,3.85
2022-12-07T00:26:07.073Z,3.43
2022-12-07T00:28:35.696Z,3.64
2022-12-07T00:31:06.222Z,3.94
2022-12-07T00:33:34.167Z,3.40
2022-12-07T00:36:02.663Z,3.95
2022-12-07T00:38:31.921Z,3.33
2022-12-07T00:41:01.149Z,3.50
2022-12-07T00:43:30.654Z,3.46
2022-12-07T00:45:58.814Z,3.28
2022-12-07T00:48:27.069Z,3.31
2022-12-07T00:50:54.949Z,3.37
2022-12-07T00:53:22.725Z,3.44
2022-12-07T00:55:50.610Z,3.52
2022-12-07T00:58:18.330Z,3.46
2022-12-07T01:00:47.663Z,3.61
2022-12-07T01:03:17.317Z,3.34
2022-12-07T01:05:52.439Z,3.06
2022-12-07T01:08:20.529Z,3.40
2022-12-07T01:10:48.340Z,3.50
2022-12-07T01:13:16.804Z,3.04
2022-12-07T01:15:45.936Z,3.23
2022-12-07T01:18:15.011Z,3.44
2022-12-07T01:20:42.923Z,3.26
2022-12-07T01:23:10.826Z,3.45
2022-12-07T01:25:38.536Z,3.32
2022-12-07T01:28:06.351Z,3.34
2022-12-07T01:30:34.123Z,3.57
2022-12-07T01:33:01.877Z,3.27
2022-12-07T01:35:31.014Z,3.53
2022-12-07T01:37:58.715Z,3.45
2022-12-07T01:40:26.454Z,3.41
2022-12-07T01:42:54.182Z,3.29
2022-12-07T01:45:40.792Z,3.37
2022-12-07T01:48:12.213Z,3.38
2022-12-07T01:50:43.965Z,3.54
2022-12-07T01:53:12.757Z,3.23
2022-12-07T01:55:45.679Z,3.47
2022-12-07T01:58:14.303Z,3.74
2022-12-07T02:00:43.158Z,3.66
2022-12-07T02:03:16.718Z,3.46
2022-12-07T02:05:46.986Z,3.16
2022-12-07T02:08:15.551Z,3.75
2022-12-07T02:10:43.631Z,3.70
2022-12-07T02:13:16.288Z,3.81
2022-12-07T02:16:07.173Z,3.36
2022-12-07T02:18:46.798Z,3.40
2022-12-07T02:21:22.456Z,3.14
2022-12-07T02:24:13.143Z,3.41
2022-12-07T02:27:09.643Z,3.78
2022-12-07T02:29:44.638Z,3.24
2022-12-07T02:32:18.450Z,3.35
2022-12-07T02:34:51.557Z,2.99
2022-12-07T02:37:38.473Z,3.37
2022-12-07T02:40:11.911Z,3.16
2022-12-07T02:42:44.763Z,3.75
2022-12-07T02:45:19.787Z,3.93
2022-12-07T02:47:49.214Z,3.46
2022-12-07T02:50:19.712Z,3.51
2022-12-07T02:52:47.492Z,3.71
2022-12-07T02:55:20.224Z,3.41
2022-12-07T02:58:02.236Z,3.33
2022-12-07T03:00:34.305Z,3.42
2022-12-07T03:03:06.231Z,3.63
2022-12-07T03:05:51.168Z,3.67
2022-12-07T03:08:26.649Z,3.19
2022-12-07T03:11:00.526Z,3.11
2022-12-07T03:13:41.405Z,3.44
2022-12-07T03:16:16.626Z,3.03
2022-12-07T03:18:51.142Z,3.13
2022-12-07T03:21:22.309Z,3.20
2022-12-07T03:23:55.133Z,3.31
2022-12-07T03:26:27.038Z,3.47
2022-12-07T03:28:57.983Z,3.77
2022-12-07T03:31:30.677Z,3.66
2022-12-07T03:34:03.399Z,4.06
2022-12-07T03:36:36.636Z,4.26
2022-12-07T03:39:13.457Z,3.65
2022-12-07T03:41:45.166Z,3.78
2022-12-07T03:44:14.575Z,3.71
2022-12-07T03:46:48.015Z,3.66
2022-12-07T03:49:24.168Z,3.24
2022-12-07T03:51:57.331Z,3.36
2022-12-07T03:54:31.050Z,3.34
2022-12-07T03:57:00.588Z,3.53
2022-12-07T03:59:29.537Z,3.56
2022-12-07T04:02:04.990Z,3.32
2022-12-07T04:04:32.802Z,3.82
2022-12-07T04:07:00.523Z,3.25
2022-12-07T04:09:28.651Z,3.10
2022-12-07T04:11:56.361Z,3.17
2022-12-07T04:14:24.294Z,3.00
2022-12-07T04:16:54.065Z,3.19
2022-12-07T04:19:25.323Z,3.32
2022-12-07T04:21:53.013Z,3.65
2022-12-07T04:24:21.446Z,3.61
2022-12-07T04:26:49.336Z,3.63
2022-12-07T04:29:17.929Z,3.17
2022-12-07T04:31:46.172Z,3.32
2022-12-07T04:34:14.629Z,3.14
2022-12-07T04:36:45.235Z,3.40
2022-12-07T04:39:21.316Z,3.52
2022-12-07T04:41:49.338Z,3.62
2022-12-07T04:44:18.035Z,3.53
2022-12-07T04:46:45.930Z,3.57
2022-12-07T04:49:14.763Z,3.44
2022-12-07T04:51:44.569Z,3.59
2022-12-07T04:54:12.575Z,3.59
2022-12-07T04:56:40.565Z,3.58
2022-12-07T04:59:08.597Z,3.28
2022-12-07T05:01:36.389Z,3.37
2022-12-07T05:04:04.703Z,3.52
2022-12-07T05:06:32.443Z,3.60
2022-12-07T05:09:01.746Z,3.56
2022-12-07T05:11:41.790Z,3.68
2022-12-07T05:14:14.128Z,3.90
2022-12-07T05:16:42.217Z,3.62
2022-12-07T05:19:11.076Z,3.64
2022-12-07T05:21:39.072Z,3.57
2022-12-07T05:24:09.980Z,3.61
2022-12-07T05:26:37.742Z,3.70
2022-12-07T05:29:05.883Z,3.62
2022-12-07T05:31:34.013Z,3.70
2022-12-07T05:34:01.797Z,3.75
2022-12-07T05:36:32.084Z,3.61
2022-12-07T05:39:00.261Z,3.63
2022-12-07T05:41:46.968Z,3.83
2022-12-07T05:44:14.730Z,3.89
2022-12-07T05:46:42.457Z,3.94
2022-12-07T05:49:10.168Z,3.78
2022-12-07T05:51:38.106Z,3.68
2022-12-07T05:54:05.920Z,3.60
2022-12-07T05:56:35.019Z,3.67
2022-12-07T05:59:20.638Z,3.87
2022-12-07T06:01:48.428Z,3.83
2022-12-07T06:04:16.202Z,3.92
2022-12-07T06:06:44.001Z,3.59
2022-12-07T06:09:12.620Z,3.91
2022-12-07T06:11:59.413Z,3.91
2022-12-07T06:14:27.555Z,4.05
2022-12-07T06:16:55.332Z,4.21
2022-12-07T06:19:23.179Z,4.09
2022-12-07T06:21:51.002Z,4.18
2022-12-07T06:24:19.971Z,4.09
2022-12-07T06:26:49.127Z,4.11
2022-12-07T06:29:17.910Z,3.54
2022-12-07T06:31:45.822Z,3.74
2022-12-07T06:34:15.745Z,3.81
2022-12-07T06:36:43.726Z,3.63
2022-12-07T06:39:11.750Z,4.04
2022-12-07T06:41:41.861Z,4.21
2022-12-07T06:44:11.169Z,4.09
2022-12-07T06:46:38.943Z,4.01
2022-12-07T06:49:07.246Z,3.91
2022-12-07T06:51:36.257Z,4.20
2022-12-07T06:54:04.456Z,3.98
2022-12-07T06:56:32.208Z,4.04
2022-12-07T06:58:59.924Z,4.14
2022-12-07T07:01:29.115Z,4.18
2022-12-07T07:03:56.972Z,3.80
2022-12-07T07:06:24.711Z,4.03
2022-12-07T07:08:52.846Z,4.15
2022-12-07T07:11:20.989Z,4.24
2022-12-07T07:13:48.729Z,3.98
2022-12-07T07:16:16.638Z,3.71
2022-12-07T07:18:45.735Z,3.44
2022-12-07T07:21:13.444Z,3.87
2022-12-07T07:23:41.206Z,3.89
2022-12-07T07:26:08.964Z,3.88
2022-12-07T07:28:36.762Z,4.04
2022-12-07T07:31:04.544Z,4.05
2022-12-07T07:33:32.296Z,4.06
2022-12-07T07:36:01.532Z,3.83
2022-12-07T07:38:29.263Z,4.22
2022-12-07T07:40:57.341Z,3.97
2022-12-07T07:43:25.077Z,3.81
2022-12-07T07:45:52.864Z,3.82
2022-12-07T07:48:20.595Z,3.56
2022-12-07T07:50:48.301Z,3.80
2022-12-07T07:53:17.383Z,4.07
2022-12-07T07:55:52.742Z,4.15
2022-12-07T07:58:20.440Z,3.92
2022-12-07T08:00:48.189Z,4.11
2022-12-07T08:03:15.894Z,4.19
2022-12-07T08:05:43.697Z,3.76
2022-12-07T08:08:11.516Z,3.97
2022-12-07T08:10:41.017Z,4.61
2022-12-07T08:13:14.895Z,4.89
2022-12-07T08:15:44.131Z,4.97
2022-12-07T08:18:12.071Z,4.32
2022-12-07T08:20:41.437Z,4.40
2022-12-07T08:23:11.270Z,4.58
2022-12-07T08:25:40.968Z,4.55
2022-12-07T08:28:08.734Z,4.38
2022-12-07T08:30:36.496Z,4.33
2022-12-07T08:33:04.434Z,4.49
2022-12-07T08:35:32.180Z,4.39
2022-12-07T08:37:59.928Z,4.93
2022-12-07T08:40:27.622Z,6.09
2022-12-07T08:42:56.706Z,5.20
2022-12-07T08:45:27.277Z,5.69
2022-12-07T08:48:00.236Z,5.18
2022-12-07T08:50:28.650Z,5.05
2022-12-07T08:52:59.108Z,4.89
2022-12-07T08:55:28.209Z,4.50
2022-12-07T08:57:59.189Z,4.43
2022-12-07T09:00:27.498Z,4.46
2022-12-07T09:02:55.799Z,4.39
2022-12-07T09:05:24.152Z,4.40
2022-12-07T09:07:56.308Z,4.35
2022-12-07T09:10:24.509Z,4.36
2022-12-07T09:12:52.394Z,4.50
2022-12-07T09:15:21.755Z,4.68
2022-12-07T09:17:49.623Z,4.24
2022-12-07T09:20:17.457Z,4.17
2022-12-07T09:22:45.161Z,5.07
2022-12-07T09:25:13.215Z,6.25
2022-12-07T09:27:41.265Z,6.18
2022-12-07T09:30:09.847Z,6.43
2022-12-07T09:32:38.996Z,5.29
2022-12-07T09:35:07.763Z,5.92
2022-12-07T09:37:37.109Z,6.92
2022-12-07T09:40:07.265Z,7.19
2022-12-07T09:42:38.259Z,7.97
2022-12-07T09:45:09.314Z,7.65
2022-12-07T09:47:38.370Z,7.63
2022-12-07T09:50:14.107Z,6.97
2022-12-07T09:52:42.378Z,5.92
2022-12-07T09:55:14.318Z,5.58
2022-12-07T09:57:42.583Z,5.41
2022-12-07T10:00:15.614Z,5.70
2022-12-07T10:02:46.982Z,5.89
2022-12-07T10:05:23.498Z,6.46
2022-12-07T10:07:52.142Z,6.61
2022-12-07T10:10:25.350Z,7.89
2022-12-07T10:12:59.409Z,7.73
2022-12-07T10:15:45.088Z,8.25
2022-12-07T10:18:30.865Z,8.56
2022-12-07T10:21:17.237Z,8.28
2022-12-07T10:24:02.424Z,7.72
2022-12-07T10:26:35.795Z,7.03
2022-12-07T10:29:16.571Z,6.61
2022-12-07T10:31:45.553Z,5.79
2022-12-07T10:34:26.079Z,5.79
2022-12-07T10:36:55.281Z,5.40
2022-12-07T10:39:25.154Z,5.33
2022-12-07T10:41:58.089Z,5.02
2022-12-07T10:44:27.615Z,5.38
2022-12-07T10:47:22.400Z,5.24
2022-12-07T10:50:19.685Z,4.95
2022-12-07T10:53:11.144Z,4.89
2022-12-07T10:55:55.508Z,4.76
2022-12-07T10:58:38.695Z,4.84
2022-12-07T11:01:17.449Z,4.69
2022-12-07T11:04:09.727Z,4.83
2022-12-07T11:06:46.051Z,4.69
2022-12-07T11:10:07.891Z,5.05
2022-12-07T11:12:42.707Z,6.25
2022-12-07T11:15:19.341Z,5.88
2022-12-07T11:17:54.914Z,5.31
2022-12-07T11:20:37.295Z,5.46
2022-12-07T11:23:18.952Z,5.46
2022-12-07T11:25:56.037Z,5.35
2022-12-07T11:28:40.787Z,5.44
2022-12-07T11:31:25.801Z,5.33
2022-12-07T11:34:02.971Z,4.98
2022-12-07T11:36:39.911Z,5.40
2022-12-07T11:39:27.380Z,5.34
2022-12-07T11:42:02.312Z,5.27
2022-12-07T11:44:39.464Z,5.41
2022-12-07T11:47:12.488Z,5.55
2022-12-07T11:49:46.107Z,5.43
2022-12-07T11:52:24.368Z,5.21
2022-12-07T11:54:55.732Z,5.41
2022-12-07T11:57:29.858Z,5.43
2022-12-07T12:00:03.229Z,4.83
2022-12-07T12:02:39.459Z,4.65
2022-12-07T12:05:17.277Z,4.82
2022-12-07T12:10:48.178Z,4.95
2022-12-07T12:16:56.394Z,4.92
2022-12-07T12:19:32.633Z,4.59
2022-12-07T12:22:12.702Z,4.78
2022-12-07T12:24:42.528Z,5.10
2022-12-07T12:27:20.239Z,5.08
2022-12-07T12:29:55.431Z,4.58
2022-12-07T12:32:26.217Z,4.59
2022-12-07T12:35:24.098Z,4.81
2022-12-07T12:37:54.888Z,5.24
2022-12-07T12:40:50.875Z,5.13
2022-12-07T12:43:53.577Z,4.49
2022-12-07T12:46:50.929Z,4.86
2022-12-07T12:49:44.079Z,5.16
2022-12-07T12:52:50.647Z,4.82
2022-12-07T12:55:22.899Z,4.84
2022-12-07T12:58:32.820Z,4.92
2022-12-07T13:01:46.130Z,4.85
2022-12-07T13:04:27.677Z,4.32
2022-12-07T13:06:55.649Z,4.73
2022-12-07T13:09:26.809Z,4.69
2022-12-07T13:12:02.066Z,4.73
2022-12-07T13:14:45.350Z,5.12
2022-12-07T13:17:13.530Z,4.67
2022-12-07T13:20:02.415Z,4.61
2022-12-07T13:22:45.179Z,4.48
2022-12-07T13:25:21.400Z,4.62
2022-12-07T13:27:57.476Z,4.55
2022-12-07T13:30:26.003Z,4.41
2022-12-07T13:32:56.157Z,3.98
2022-12-07T13:35:34.248Z,4.12
2022-12-07T13:38:04.604Z,4.25
2022-12-07T13:40:32.323Z,4.00
2022-12-07T13:43:01.772Z,4.05
2022-12-07T13:45:49.176Z,3.98
2022-12-07T13:48:22.304Z,3.95
2022-12-07T13:50:56.741Z,4.27
2022-12-07T13:53:24.794Z,4.37
2022-12-07T13:55:54.787Z,4.35
2022-12-07T13:58:23.842Z,4.37
2022-12-07T14:00:52.065Z,4.40
2022-12-07T14:03:29.303Z,4.12
2022-12-07T14:06:16.465Z,4.31
2022-12-07T14:08:45.065Z,4.22
2022-12-07T14:11:20.540Z,4.42
2022-12-07T14:14:00.273Z,4.48
2022-12-07T14:16:30.763Z,4.41
2022-12-07T14:19:00.178Z,4.17
2022-12-07T14:21:31.410Z,4.39
2022-12-07T14:24:20.668Z,4.58
2022-12-07T14:26:49.609Z,4.21
2022-12-07T14:29:39.698Z,3.83
2022-12-07T14:32:21.661Z,4.15
2022-12-07T14:34:56.793Z,3.06
2022-12-07T14:37:26.139Z,3.64
2022-12-07T14:39:53.883Z,3.74
2022-12-07T14:42:22.305Z,3.66
2022-12-07T14:44:50.077Z,3.78
2022-12-07T14:50:06.818Z,3.77
2022-12-07T14:55:26.354Z,3.78
2022-12-07T14:57:54.531Z,3.65
2022-12-07T15:00:24.742Z,3.86
2022-12-07T15:02:53.046Z,4.18
2022-12-07T15:05:21.383Z,3.90
2022-12-07T15:07:51.687Z,3.86
2022-12-07T15:10:24.197Z,3.96
2022-12-07T15:12:52.862Z,4.10
2022-12-07T15:15:20.732Z,3.82
2022-12-07T15:17:48.521Z,4.08
2022-12-07T15:20:18.803Z,4.27
2022-12-07T15:22:46.538Z,3.97
2022-12-07T15:25:16.521Z,4.21
2022-12-07T15:27:44.252Z,4.34
2022-12-07T15:30:12.489Z,4.46
2022-12-07T15:32:40.295Z,4.03
2022-12-07T15:35:08.799Z,4.15
2022-12-07T15:37:36.762Z,3.92
2022-12-07T15:40:07.959Z,4.13
2022-12-07T15:42:38.158Z,4.25
2022-12-07T15:45:06.820Z,3.98
2022-12-07T15:48:02.277Z,4.26
2022-12-07T15:50:25.791Z,3.84
2022-12-07T15:52:53.526Z,3.89
2022-12-07T15:55:21.285Z,3.94
2022-12-07T15:57:50.447Z,3.83
2022-12-07T16:00:19.429Z,3.82
2022-12-07T16:02:47.266Z,3.78
2022-12-07T16:05:15.293Z,3.63
2022-12-07T16:07:43.102Z,3.79
2022-12-07T16:10:11.730Z,3.55
2022-12-07T16:12:39.433Z,3.62
2022-12-07T16:15:09.682Z,3.95
2022-12-07T16:17:37.425Z,3.73
2022-12-07T16:20:06.467Z,3.44
2022-12-07T16:22:34.402Z,3.46
2022-12-07T16:25:02.500Z,3.87
2022-12-07T16:27:31.161Z,3.71
2022-12-07T16:29:58.932Z,3.62
2022-12-07T16:32:28.062Z,3.71
2022-12-07T16:34:55.806Z,3.78
2022-12-07T16:37:23.518Z,3.74
2022-12-07T16:39:51.266Z,3.89
2022-12-07T16:42:18.987Z,4.20
2022-12-07T16:44:46.677Z,3.99
2022-12-07T16:47:16.018Z,4.02
2022-12-07T16:49:45.964Z,4.13
2022-12-07T16:52:21.520Z,4.30
2022-12-07T16:54:50.797Z,3.92
2022-12-07T16:57:23.434Z,3.99
2022-12-07T16:59:51.864Z,3.75
2022-12-07T17:02:19.628Z,3.46
2022-12-07T17:04:48.691Z,3.47
2022-12-07T17:07:16.496Z,3.43
2022-12-07T17:09:44.216Z,3.82
2022-12-07T17:12:11.923Z,3.98
2022-12-07T17:14:57.281Z,4.08
2022-12-07T17:17:24.997Z,4.21
2022-12-07T17:19:54.079Z,4.39
2022-12-07T17:22:21.798Z,4.10
2022-12-07T17:24:49.565Z,3.98
2022-12-07T17:27:17.771Z,4.28
2022-12-07T17:29:45.501Z,4.44
2022-12-07T17:32:13.317Z,3.79
2022-12-07T17:34:41.142Z,3.99
2022-12-07T17:37:10.193Z,4.13
2022-12-07T17:39:38.051Z,4.08
2022-12-07T17:42:23.279Z,3.91
2022-12-07T17:44:51.082Z,3.70
2022-12-07T17:47:19.224Z,3.95
2022-12-07T17:49:48.130Z,4.28
2022-12-07T17:52:37.913Z,3.73
2022-12-07T17:55:06.769Z,3.48
2022-12-07T17:57:34.611Z,3.39
2022-12-07T18:00:02.327Z,3.73
2022-12-07T18:02:30.025Z,3.73
2022-12-07T18:04:57.712Z,3.54
2022-12-07T18:07:26.779Z,3.82
2022-12-07T18:09:54.527Z,3.88
2022-12-07T18:12:22.265Z,4.23
2022-12-07T18:14:50.929Z,3.82
2022-12-07T18:17:18.945Z,3.71
2022-12-07T18:19:46.745Z,3.88
2022-12-07T18:22:14.490Z,4.08
2022-12-07T18:24:43.605Z,3.72
2022-12-07T18:27:11.901Z,3.86
2022-12-07T18:29:39.615Z,3.89
2022-12-07T18:32:07.673Z,3.96
2022-12-07T18:34:35.355Z,4.10
2022-12-07T18:37:03.065Z,3.80
2022-12-07T18:39:33.956Z,3.49
2022-12-07T18:42:03.471Z,3.96
2022-12-07T18:44:31.197Z,3.62
2022-12-07T18:46:59.037Z,3.69
2022-12-07T18:49:26.777Z,3.46
2022-12-07T18:51:54.562Z,3.84
2022-12-07T18:54:22.301Z,3.68
2022-12-07T18:56:50.240Z,3.50
2022-12-07T18:59:36.509Z,3.47
2022-12-07T19:02:04.435Z,3.55
2022-12-07T19:04:32.586Z,3.57
2022-12-07T19:07:00.327Z,3.53
2022-12-07T19:09:28.114Z,3.63
2022-12-07T19:11:57.122Z,3.58
2022-12-07T19:14:28.479Z,3.66
2022-12-07T19:16:58.356Z,2.94
2022-12-07T19:19:31.496Z,3.32
2022-12-07T19:21:59.921Z,3.49
2022-12-07T19:24:27.971Z,3.47
2022-12-07T19:26:56.138Z,3.55
2022-12-07T19:29:24.326Z,3.74
2022-12-07T19:31:53.998Z,3.80
2022-12-07T19:34:22.189Z,3.48
2022-12-07T19:36:50.518Z,3.64
2022-12-07T19:39:18.750Z,3.73
2022-12-07T19:41:47.580Z,3.61
2022-12-07T19:44:17.568Z,3.69
2022-12-07T19:46:48.947Z,3.92
2022-12-07T19:49:19.398Z,3.70
2022-12-07T19:51:49.836Z,3.67
2022-12-07T19:54:20.514Z,3.98
2022-12-07T19:56:49.813Z,4.04
2022-12-07T19:59:19.656Z,4.05
2022-12-07T20:01:47.920Z,4.07
2022-12-07T20:04:20.817Z,4.00
2022-12-07T20:06:49.726Z,3.95
2022-12-07T20:09:17.739Z,4.51
2022-12-07T20:12:03.448Z,4.27
2022-12-07T20:14:32.181Z,4.41
2022-12-07T20:17:01.130Z,4.56
2022-12-07T20:19:30.794Z,4.31
2022-12-07T20:21:58.826Z,4.23
2022-12-07T20:24:27.379Z,4.19
2022-12-07T20:26:56.120Z,3.87
2022-12-07T20:29:26.340Z,4.15
2022-12-07T20:31:55.749Z,4.04
2022-12-07T20:34:25.418Z,4.14
2022-12-07T20:36:55.361Z,3.97
2022-12-07T20:39:24.104Z,4.52
2022-12-07T20:42:10.017Z,6.12
2022-12-07T20:44:37.761Z,6.11
2022-12-07T20:47:06.312Z,5.31
2022-12-07T20:49:35.433Z,4.67
2022-12-07T20:52:04.970Z,4.46
2022-12-07T20:54:32.897Z,4.39
2022-12-07T20:57:00.591Z,4.24
2022-12-07T20:59:28.346Z,4.20
2022-12-07T21:01:56.120Z,3.97
2022-12-07T21:04:23.883Z,3.91
2022-12-07T21:06:53.722Z,4.18
2022-12-07T21:09:26.838Z,4.22
2022-12-07T21:11:55.056Z,4.07
2022-12-07T21:14:23.347Z,4.38
2022-12-07T21:16:51.083Z,4.38
2022-12-07T21:19:19.112Z,4.34
2022-12-07T21:21:46.889Z,4.30
2022-12-07T21:24:14.637Z,4.15
2022-12-07T21:26:43.771Z,4.09
2022-12-07T21:29:11.493Z,4.04
2022-12-07T21:31:39.246Z,3.70
2022-12-07T21:34:07.029Z,3.37
2022-12-07T21:36:35.106Z,3.37
2022-12-07T21:39:02.923Z,3.45
2022-12-07T21:41:32.665Z,3.22
2022-12-07T21:44:04.848Z,3.36
2022-12-07T21:46:34.624Z,2.85
2022-12-07T21:49:06.097Z,2.91
2022-12-07T21:51:34.103Z,3.06
2022-12-07T21:54:03.452Z,2.86
2022-12-07T21:56:33.483Z,2.59
2022-12-07T21:59:05.128Z,2.33
2022-12-07T22:01:38.097Z,2.56
2022-12-07T22:04:06.460Z,2.60
2022-12-07T22:06:35.886Z,2.67
2022-12-07T22:09:05.128Z,2.64
2022-12-07T22:11:32.887Z,2.68
2022-12-07T22:14:27.711Z,2.61
2022-12-07T22:16:55.490Z,2.75
2022-12-07T22:19:23.268Z,2.68
2022-12-07T22:21:50.986Z,2.66
2022-12-07T22:24:18.694Z,2.65
2022-12-07T22:26:46.427Z,2.65
2022-12-07T22:29:15.698Z,2.68
2022-12-07T22:31:43.559Z,2.56
2022-12-07T22:34:16.516Z,2.81
2022-12-07T22:36:44.336Z,2.81
2022-12-07T22:39:12.054Z,2.85
2022-12-07T22:41:39.838Z,2.84
2022-12-07T22:44:08.576Z,2.77
2022-12-07T22:46:38.332Z,3.16
2022-12-07T22:49:06.938Z,2.68
2022-12-07T22:51:36.845Z,2.74
2022-12-07T22:54:06.875Z,2.65
2022-12-07T22:56:36.626Z,2.82
2022-12-07T22:59:05.109Z,2.63
2022-12-07T23:01:32.822Z,2.84
2022-12-07T23:04:02.284Z,2.67
2022-12-07T23:06:32.892Z,2.92
2022-12-07T23:09:02.816Z,2.61
2022-12-07T23:11:51.082Z,3.07
2022-12-07T23:14:21.627Z,3.28
2022-12-07T23:16:49.553Z,3.28
2022-12-07T23:19:19.386Z,3.04
2022-12-07T23:21:47.130Z,3.28
2022-12-07T23:24:15.868Z,3.11
2022-12-07T23:26:44.574Z,3.06
2022-12-07T23:29:17.174Z,2.62
2022-12-07T23:31:45.896Z,2.87
2022-12-07T23:34:15.227Z,3.04
2022-12-07T23:36:44.397Z,3.11
2022-12-07T23:39:12.355Z,3.05
2022-12-07T23:41:40.432Z,3.20
2022-12-07T23:44:08.350Z,3.05
2022-12-07T23:46:36.296Z,2.96
2022-12-07T23:49:06.837Z,2.85
2022-12-07T23:51:34.949Z,3.09
2022-12-07T23:54:04.091Z,2.99
2022-12-07T23:56:33.514Z,3.24
2022-12-07T23:59:02.678Z,2.98
